Time;durP1;ratioP1;P1;durP2;ratioP2;P2;SDS_P1;SDS_P2;PMS_P1;PMS_P2;Temp;Humidity;BMP_temperature;BMP_pressure;BME280_temperature;BME280_humidity;BME280_pressure;Samples;Min_cycle;Max_cycle;Signal;HPM_P1;HPM_P2
2023/10/07 00:02:59;;;;;;;6.38;1.80;;;37.70;26.20;;;;;;5058494;28;20117;-61
2023/10/07 00:05:31;;;;;;;8.55;1.77;;;37.70;26.20;;;;;;5058004;28;20008;-61
2023/10/07 00:08:19;;;;;;;2.72;1.55;;;37.60;27.20;;;;;;5057125;28;20028;-60
2023/10/07 00:10:50;;;;;;;6.93;1.67;;;37.50;27.10;;;;;;5059901;28;20029;-61
2023/10/07 00:13:20;;;;;;;5.38;1.52;;;37.50;27.80;;;;;;5058966;28;20066;-63
2023/10/07 00:15:51;;;;;;;8.43;1.70;;;37.40;27.60;;;;;;5060688;28;20025;-62
2023/10/07 00:18:18;;;;;;;12.25;10.95;;;37.40;26.90;;;;;;5053430;28;20051;-61
2023/10/07 00:21:07;;;;;;;6.15;5.55;;;37.30;27.10;;;;;;5060289;28;20013;-60
2023/10/07 00:23:35;;;;;;;10.43;6.90;;;37.20;27.40;;;;;;5056945;28;20036;-61
2023/10/07 00:26:07;;;;;;;8.25;3.17;;;37.10;27.50;;;;;;5059168;28;20005;-61
2023/10/07 00:28:35;;;;;;;4.07;1.77;;;37.10;27.20;;;;;;5056606;28;20138;-61
2023/10/07 00:31:14;;;;;;;4.95;1.80;;;37.00;27.30;;;;;;5058372;28;20020;-62
2023/10/07 00:36:41;;;;;;;8.05;1.88;;;36.80;28.10;;;;;;5054972;28;20056;-61
2023/10/07 00:39:09;;;;;;;4.65;1.90;;;36.70;28.50;;;;;;5058056;28;20029;-61
2023/10/07 00:41:45;;;;;;;6.22;1.77;;;36.60;28.30;;;;;;5056143;28;20056;-62
2023/10/07 00:44:32;;;;;;;2.92;1.77;;;36.60;28.60;;;;;;5052524;28;20037;-61
2023/10/07 00:52:28;;;;;;;6.45;2.20;;;36.30;29.80;;;;;;5054365;28;20024;-60
2023/10/07 00:57:37;;;;;;;5.47;2.10;;;36.00;28.60;;;;;;5056593;28;20369;-60
2023/10/07 01:00:28;;;;;;;8.90;2.05;;;35.90;28.90;;;;;;5053307;28;20048;-58
2023/10/07 01:05:44;;;;;;;8.60;2.45;;;35.70;30.00;;;;;;5055190;28;20518;-60
2023/10/07 01:08:12;;;;;;;6.60;2.20;;;35.50;29.90;;;;;;5052244;28;20074;-60
2023/10/07 01:10:42;;;;;;;10.10;2.63;;;35.40;29.80;;;;;;5057813;28;20020;-60
2023/10/07 01:13:28;;;;;;;7.03;2.25;;;35.20;30.10;;;;;;5056920;28;20073;-59
2023/10/07 01:15:55;;;;;;;8.73;2.53;;;35.10;30.50;;;;;;5060462;28;20025;-59
2023/10/07 01:18:22;;;;;;;12.07;2.85;;;35.00;30.60;;;;;;5058227;28;20019;-61
2023/10/07 01:23:23;;;;;;;12.48;2.65;;;34.70;30.30;;;;;;5058238;28;20051;-60
2023/10/07 01:25:53;;;;;;;14.32;2.80;;;34.50;31.20;;;;;;5050771;28;20466;-60
2023/10/07 01:28:21;;;;;;;9.65;2.75;;;34.40;31.20;;;;;;5058749;28;20070;-60
2023/10/07 01:31:09;;;;;;;11.85;2.97;;;34.30;30.90;;;;;;5055956;28;20044;-60
2023/10/07 01:33:45;;;;;;;13.65;3.55;;;34.20;31.00;;;;;;5056350;28;20095;-60
2023/10/07 01:36:24;;;;;;;12.98;3.30;;;34.20;30.90;;;;;;5053621;28;20025;-59
2023/10/07 01:38:51;;;;;;;11.75;4.15;;;34.10;30.70;;;;;;5065291;28;20055;-61
2023/10/07 01:41:19;;;;;;;17.25;4.80;;;33.90;30.80;;;;;;5060395;28;20029;-60
2023/10/07 01:43:59;;;;;;;22.33;4.80;;;33.80;30.70;;;;;;5057692;28;20028;-63
2023/10/07 01:46:31;;;;;;;23.42;4.53;;;33.70;31.20;;;;;;5055607;28;20071;-61
2023/10/07 01:49:01;;;;;;;26.00;4.07;;;33.50;31.80;;;;;;5054512;28;20013;-61
2023/10/07 01:51:29;;;;;;;28.70;5.40;;;33.40;32.80;;;;;;5055745;28;20038;-60
2023/10/07 01:53:57;;;;;;;39.55;5.70;;;33.30;33.10;;;;;;5065764;28;20488;-60
2023/10/07 01:56:29;;;;;;;29.88;5.00;;;33.20;33.80;;;;;;5057821;28;20121;-61
2023/10/07 01:59:17;;;;;;;33.50;4.95;;;33.10;34.20;;;;;;5054322;28;20017;-62
2023/10/07 02:01:50;;;;;;;40.40;6.15;;;33.00;34.00;;;;;;5055445;28;20040;-62
2023/10/07 02:04:18;;;;;;;37.25;5.55;;;32.90;33.90;;;;;;5056164;28;20048;-62
2023/10/07 02:06:54;;;;;;;33.47;5.82;;;32.70;34.30;;;;;;5056670;28;20457;-64
2023/10/07 02:09:25;;;;;;;22.45;5.88;;;32.60;34.30;;;;;;5055716;28;20013;-61
2023/10/07 02:11:56;;;;;;;36.83;5.90;;;32.50;34.20;;;;;;5060441;28;20017;-61
2023/10/07 02:14:27;;;;;;;44.22;6.60;;;32.30;34.60;;;;;;5061056;28;20539;-61
2023/10/07 02:16:59;;;;;;;33.97;6.28;;;32.30;34.50;;;;;;5049443;28;20025;-62
2023/10/07 02:19:34;;;;;;;33.17;7.53;;;32.20;35.00;;;;;;5052559;28;20473;-61
2023/10/07 02:22:13;;;;;;;34.83;6.78;;;32.10;35.20;;;;;;5056373;28;20010;-60
2023/10/07 02:24:43;;;;;;;29.70;7.22;;;32.00;36.10;;;;;;5055367;28;20361;-61
2023/10/07 02:27:19;;;;;;;25.52;6.93;;;31.90;36.70;;;;;;5056267;28;20021;-61
2023/10/07 02:29:48;;;;;;;29.47;7.10;;;31.80;36.30;;;;;;5051511;28;20013;-63
2023/10/07 02:32:17;;;;;;;31.27;8.35;;;31.80;36.10;;;;;;5059495;28;20074;-61
2023/10/07 02:34:55;;;;;;;31.55;8.75;;;31.70;36.70;;;;;;5054342;28;20104;-60
2023/10/07 02:37:38;;;;;;;28.92;8.68;;;31.50;36.60;;;;;;5052401;28;20020;-60
2023/10/07 02:42:54;;;;;;;34.97;9.82;;;31.50;37.00;;;;;;5058934;28;20112;-60
2023/10/07 02:45:28;;;;;;;48.50;10.50;;;31.30;36.70;;;;;;5053807;28;20075;-60
2023/10/07 02:47:55;;;;;;;39.08;10.27;;;31.30;36.70;;;;;;5059761;28;20495;-58
2023/10/07 02:50:25;;;;;;;50.20;21.35;;;31.20;36.90;;;;;;5053282;28;20021;-62
2023/10/07 02:52:54;;;;;;;46.17;10.50;;;31.10;37.40;;;;;;5056401;28;20025;-60
2023/10/07 02:57:55;;;;;;;38.88;12.05;;;31.00;37.50;;;;;;5055357;28;20029;-62
2023/10/07 03:00:38;;;;;;;50.00;12.52;;;30.90;37.30;;;;;;5054175;28;20497;-60
2023/10/07 03:05:44;;;;;;;74.68;17.55;;;30.80;38.00;;;;;;5058000;28;20071;-59
2023/10/07 03:08:19;;;;;;;85.18;30.88;;;30.70;38.00;;;;;;5053492;28;20017;-60
2023/10/07 03:11:03;;;;;;;78.35;34.42;;;30.70;37.80;;;;;;5056182;28;20009;-60
2023/10/07 03:13:30;;;;;;;98.97;32.60;;;30.60;38.30;;;;;;5058570;28;20028;-60
2023/10/07 03:16:45;;;;;;;78.78;31.17;;;30.50;38.30;;;;;;5064153;28;20077;-60
2023/10/07 03:21:22;;;;;;;56.88;18.17;;;30.40;39.10;;;;;;5057128;28;20024;-60
2023/10/07 03:23:49;;;;;;;80.13;16.33;;;30.40;39.10;;;;;;5062515;28;20029;-59
2023/10/07 03:26:22;;;;;;;71.43;16.58;;;30.30;39.00;;;;;;5058047;28;20009;-58
2023/10/07 03:28:55;;;;;;;82.53;14.35;;;30.20;40.00;;;;;;5054159;28;20404;-58
2023/10/07 03:31:47;;;;;;;71.97;14.80;;;30.10;39.70;;;;;;5054975;28;20066;-57
2023/10/07 03:34:14;;;;;;;96.80;15.15;;;30.00;40.00;;;;;;5055700;28;20385;-61
2023/10/07 03:36:41;;;;;;;79.03;15.15;;;29.80;40.00;;;;;;5054102;28;20024;-62
2023/10/07 03:41:47;;;;;;;68.70;14.60;;;29.70;41.20;;;;;;5055232;28;20507;-61
2023/10/07 03:44:17;;;;;;;80.13;14.45;;;29.60;41.40;;;;;;5057206;28;20047;-59
2023/10/07 03:46:47;;;;;;;90.07;15.98;;;29.50;41.30;;;;;;5055527;28;20020;-61
2023/10/07 03:49:15;;;;;;;68.95;15.80;;;29.40;41.60;;;;;;5054386;28;20040;-58
2023/10/07 03:51:45;;;;;;;63.00;14.30;;;29.40;40.40;;;;;;5054439;28;20021;-61
2023/10/07 03:54:29;;;;;;;72.93;15.50;;;29.30;41.00;;;;;;5051960;28;20063;-62
2023/10/07 03:56:56;;;;;;;66.15;16.02;;;29.30;40.30;;;;;;5067895;28;20103;-56
2023/10/07 03:59:24;;;;;;;81.97;17.90;;;29.20;40.80;;;;;;5054387;28;20066;-63
2023/10/07 04:01:53;;;;;;;76.90;17.55;;;29.20;40.30;;;;;;5054696;28;20096;-59
2023/10/07 04:04:23;;;;;;;75.00;17.25;;;29.20;40.40;;;;;;5058838;28;20090;-63
2023/10/07 04:06:51;;;;;;;77.28;16.45;;;29.10;40.40;;;;;;5058941;28;20083;-59
2023/10/07 04:09:18;;;;;;;84.80;18.65;;;29.10;40.80;;;;;;5065168;28;20377;-60
2023/10/07 04:11:50;;;;;;;77.82;17.83;;;29.10;40.40;;;;;;5052018;28;20445;-63
2023/10/07 04:14:27;;;;;;;92.68;19.48;;;29.00;40.90;;;;;;5056200;28;20070;-65
2023/10/07 04:16:55;;;;;;;83.40;18.98;;;29.00;42.40;;;;;;5070693;28;20021;-65
2023/10/07 04:21:50;;;;;;;96.15;20.60;;;28.80;42.00;;;;;;5066858;28;21594;-60
2023/10/07 04:24:24;;;;;;;94.05;20.38;;;28.80;42.30;;;;;;5056636;28;20044;-66
2023/10/07 04:27:02;;;;;;;110.43;21.88;;;28.70;42.50;;;;;;5062007;28;20031;-65
2023/10/07 04:29:31;;;;;;;93.93;21.95;;;28.70;42.40;;;;;;5060229;28;20020;-64
2023/10/07 04:32:05;;;;;;;108.43;21.35;;;28.60;42.50;;;;;;5057693;28;20115;-60
2023/10/07 04:34:33;;;;;;;127.88;23.23;;;28.60;42.70;;;;;;5052239;28;20107;-61
2023/10/07 04:39:36;;;;;;;91.88;21.70;;;28.50;43.40;;;;;;5069581;28;20009;-61
2023/10/07 04:42:07;;;;;;;105.70;22.70;;;28.50;43.10;;;;;;5049863;28;20534;-59
2023/10/07 04:47:35;;;;;;;111.13;21.80;;;28.40;44.50;;;;;;5053137;28;20017;-59
2023/10/07 04:49:58;;;;;;;82.50;22.00;;;28.30;44.60;;;;;;5061894;28;20437;-61
2023/10/07 04:52:26;;;;;;;103.45;21.83;;;28.30;44.10;;;;;;5056591;28;21140;-60
2023/10/07 04:54:53;;;;;;;90.40;20.63;;;28.20;44.50;;;;;;5062550;28;20019;-58
2023/10/07 04:57:39;;;;;;;85.63;20.58;;;28.20;44.30;;;;;;5060789;28;20109;-57
2023/10/07 05:00:17;;;;;;;89.60;20.50;;;28.10;44.80;;;;;;5063079;28;20099;-63
2023/10/07 05:02:44;;;;;;;96.53;21.67;;;28.10;45.30;;;;;;5065624;28;20043;-60
2023/10/07 05:05:13;;;;;;;104.63;21.90;;;28.00;44.80;;;;;;5057247;28;20020;-61
2023/10/07 05:07:43;;;;;;;104.35;21.20;;;28.00;45.10;;;;;;5069224;28;20009;-63
2023/10/07 05:10:10;;;;;;;97.57;20.10;;;28.00;45.30;;;;;;5069715;28;20088;-60
2023/10/07 05:12:38;;;;;;;90.18;20.52;;;27.90;44.80;;;;;;5065667;28;20059;-61
2023/10/07 05:15:05;;;;;;;88.90;19.90;;;27.80;45.20;;;;;;5052444;28;20017;-60
2023/10/07 05:17:36;;;;;;;90.53;18.73;;;27.80;45.80;;;;;;5063451;28;20044;-63
2023/10/07 05:20:24;;;;;;;104.72;20.13;;;27.80;46.30;;;;;;5058166;28;20025;-61
2023/10/07 05:22:49;;;;;;;87.95;20.02;;;27.80;46.00;;;;;;5056795;28;20028;-60
2023/10/07 05:25:16;;;;;;;88.90;20.05;;;27.70;45.80;;;;;;5031781;28;20025;-60
2023/10/07 05:27:44;;;;;;;96.60;20.10;;;27.70;46.40;;;;;;5061874;28;20016;-63
2023/10/07 05:30:12;;;;;;;106.00;19.42;;;27.60;46.10;;;;;;5067114;28;20031;-62
2023/10/07 05:32:39;;;;;;;89.20;19.05;;;27.60;45.90;;;;;;5048369;28;20024;-59
2023/10/07 05:35:08;;;;;;;84.10;19.40;;;27.60;45.80;;;;;;5067389;28;20440;-64
2023/10/07 05:37:34;;;;;;;85.38;19.88;;;27.60;46.50;;;;;;5052728;28;20021;-61
2023/10/07 05:40:03;;;;;;;93.82;19.23;;;27.50;46.70;;;;;;5063304;28;20021;-62
2023/10/07 05:42:29;;;;;;;86.60;20.33;;;27.50;46.90;;;;;;5058159;28;20036;-58
2023/10/07 05:44:57;;;;;;;81.95;21.05;;;27.40;46.90;;;;;;5058005;28;20038;-59
2023/10/07 05:47:23;;;;;;;95.70;20.30;;;27.40;46.20;;;;;;5062338;28;20017;-61
2023/10/07 05:49:55;;;;;;;100.78;21.77;;;27.30;46.30;;;;;;5059107;28;20017;-61
2023/10/07 05:52:22;;;;;;;78.93;20.52;;;27.30;46.60;;;;;;5066943;28;20016;-62
2023/10/07 05:54:50;;;;;;;83.97;21.70;;;27.20;46.20;;;;;;5066033;28;20044;-61
2023/10/07 05:57:17;;;;;;;85.38;21.75;;;27.20;46.20;;;;;;5058436;28;20120;-61
2023/10/07 05:59:44;;;;;;;97.85;21.23;;;27.20;46.60;;;;;;5058341;28;20032;-65
2023/10/07 06:02:14;;;;;;;107.68;23.13;;;27.10;47.10;;;;;;5056875;28;20028;-61
2023/10/07 06:04:41;;;;;;;95.45;23.05;;;27.10;46.20;;;;;;5058537;28;20126;-62
2023/10/07 06:07:08;;;;;;;117.22;22.35;;;27.10;46.50;;;;;;5062077;28;20009;-62
2023/10/07 06:09:36;;;;;;;81.97;21.92;;;27.10;46.20;;;;;;5052052;28;20012;-58
2023/10/07 06:12:07;;;;;;;79.00;21.90;;;27.10;46.80;;;;;;5054864;28;20041;-58
2023/10/07 06:14:35;;;;;;;87.32;21.83;;;27.00;46.10;;;;;;5053363;28;20018;-62
2023/10/07 06:17:06;;;;;;;93.03;22.48;;;27.00;46.30;;;;;;5056852;28;20071;-66
2023/10/07 06:19:36;;;;;;;90.93;22.75;;;27.00;46.40;;;;;;5053710;28;20020;-61
2023/10/07 06:22:11;;;;;;;90.78;24.27;;;27.00;45.80;;;;;;5053885;28;21066;-64
2023/10/07 06:24:40;;;;;;;102.45;23.83;;;26.90;45.50;;;;;;5055305;28;21484;-57
2023/10/07 06:27:11;;;;;;;93.18;23.20;;;27.00;46.00;;;;;;5062373;28;20040;-62
2023/10/07 06:29:43;;;;;;;97.78;27.65;;;26.90;45.60;;;;;;5054366;28;20105;-61
2023/10/07 06:32:22;;;;;;;91.88;30.00;;;26.90;45.00;;;;;;5063136;28;20005;-63
2023/10/07 06:34:52;;;;;;;111.55;31.05;;;27.00;43.90;;;;;;5059872;28;20090;-61
2023/10/07 06:37:29;;;;;;;119.45;28.73;;;26.90;43.50;;;;;;5050754;28;20381;-60
2023/10/07 06:40:00;;;;;;;99.00;29.35;;;26.90;43.90;;;;;;5066004;28;20016;-63
2023/10/07 06:42:27;;;;;;;89.28;26.77;;;26.90;43.70;;;;;;5047645;28;20068;-60
2023/10/07 06:45:02;;;;;;;109.18;26.15;;;27.30;44.70;;;;;;5054555;28;20044;-57
2023/10/07 06:47:29;;;;;;;150.93;29.35;;;28.40;42.90;;;;;;5058002;28;20028;-59
2023/10/07 06:49:58;;;;;;;113.50;25.80;;;28.90;42.00;;;;;;5057960;28;20013;-59
2023/10/07 06:52:25;;;;;;;93.30;24.05;;;29.10;41.30;;;;;;5060175;28;20020;-62
2023/10/07 06:54:54;;;;;;;100.20;24.92;;;29.30;41.00;;;;;;5059014;28;20093;-60
2023/10/07 06:57:21;;;;;;;81.20;21.73;;;29.40;41.10;;;;;;5059198;28;20116;-56
2023/10/07 06:59:47;;;;;;;88.15;20.13;;;29.50;40.60;;;;;;5060261;28;20107;-60
2023/10/07 07:02:34;;;;;;;75.57;20.00;;;29.40;40.60;;;;;;5058376;28;20093;-59
2023/10/07 07:05:01;;;;;;;69.55;18.13;;;29.40;40.30;;;;;;5058797;28;22001;-64
2023/10/07 07:07:28;;;;;;;50.35;14.90;;;29.40;40.00;;;;;;5058456;28;20358;-60
2023/10/07 07:09:58;;;;;;;49.72;13.57;;;29.40;39.00;;;;;;5058233;28;20024;-60
2023/10/07 07:12:26;;;;;;;48.25;14.23;;;29.50;39.40;;;;;;5060827;28;20535;-59
2023/10/07 07:15:26;;;;;;;52.97;13.40;;;29.40;39.00;;;;;;5057189;28;20072;-60
2023/10/07 07:18:04;;;;;;;45.63;13.35;;;29.80;39.20;;;;;;5055248;28;20449;-58
2023/10/07 07:20:48;;;;;;;47.40;12.45;;;30.10;38.10;;;;;;5059880;28;20468;-57
2023/10/07 07:23:16;;;;;;;32.92;12.02;;;30.00;38.50;;;;;;5059688;28;20073;-57
2023/10/07 07:28:31;;;;;;;34.67;11.52;;;30.20;37.70;;;;;;5059614;28;20519;-58
2023/10/07 07:30:58;;;;;;;39.95;12.30;;;29.90;38.30;;;;;;5057536;28;20020;-61
2023/10/07 07:33:29;;;;;;;42.95;13.60;;;29.90;39.00;;;;;;5054454;28;20024;-58
2023/10/07 07:35:58;;;;;;;40.22;12.30;;;30.00;38.60;;;;;;5058605;28;20106;-59
2023/10/07 07:38:31;;;;;;;40.05;13.07;;;29.90;38.40;;;;;;5059172;28;20045;-58
2023/10/07 07:41:05;;;;;;;33.50;10.70;;;29.80;38.90;;;;;;5058739;28;20029;-58
2023/10/07 07:43:36;;;;;;;34.65;10.43;;;29.60;39.10;;;;;;5058504;28;20024;-61
2023/10/07 07:46:51;;;;;;;39.33;10.52;;;29.30;39.70;;;;;;5056731;28;20071;-57
2023/10/07 07:49:19;;;;;;;30.17;10.32;;;29.00;40.10;;;;;;5060988;28;20063;-59
2023/10/07 07:51:51;;;;;;;33.17;10.43;;;29.00;39.80;;;;;;5058082;28;20103;-56
2023/10/07 07:54:19;;;;;;;34.03;9.65;;;29.10;39.50;;;;;;5059817;28;20033;-57
2023/10/07 07:56:46;;;;;;;29.77;8.25;;;29.00;39.40;;;;;;5053466;28;20111;-59
2023/10/07 07:59:17;;;;;;;26.33;8.10;;;29.00;39.50;;;;;;5054812;28;20478;-56
2023/10/07 08:01:53;;;;;;;27.00;8.00;;;28.80;40.40;;;;;;5053739;28;20053;-56
2023/10/07 08:07:18;;;;;;;22.00;7.93;;;28.50;40.20;;;;;;5055398;28;20055;-58
2023/10/07 08:09:50;;;;;;;27.35;8.70;;;28.30;40.00;;;;;;5053072;28;20444;-62
2023/10/07 08:12:19;;;;;;;21.40;8.10;;;28.20;39.60;;;;;;5053760;28;20071;-59
2023/10/07 08:14:52;;;;;;;25.13;8.57;;;28.20;39.90;;;;;;5056132;28;20013;-59
2023/10/07 08:17:27;;;;;;;24.13;8.00;;;28.20;40.30;;;;;;5054044;28;20056;-59
2023/10/07 08:19:54;;;;;;;23.90;8.65;;;28.20;40.00;;;;;;5049306;28;20033;-56
2023/10/07 08:22:23;;;;;;;25.27;7.78;;;28.10;40.60;;;;;;5053174;28;20032;-60
2023/10/07 08:24:52;;;;;;;29.48;7.43;;;28.00;39.80;;;;;;5055417;28;20020;-56
2023/10/07 08:30:09;;;;;;;19.52;4.50;;;27.60;39.10;;;;;;5053171;28;20020;-60
2023/10/07 08:32:37;;;;;;;13.27;3.83;;;27.70;39.40;;;;;;5053861;28;20017;-57
2023/10/07 08:35:28;;;;;;;8.27;3.03;;;27.60;38.80;;;;;;5052907;28;20025;-58
2023/10/07 08:37:54;;;;;;;10.43;3.10;;;27.50;39.20;;;;;;5053457;28;20036;-59
2023/10/07 08:40:28;;;;;;;12.00;3.10;;;27.40;39.60;;;;;;5053014;28;20009;-59
2023/10/07 08:43:00;;;;;;;15.60;3.13;;;27.50;39.50;;;;;;5052338;28;20464;-58
2023/10/07 08:45:28;;;;;;;8.90;3.10;;;27.50;40.00;;;;;;5055389;28;20031;-56
2023/10/07 08:48:08;;;;;;;12.60;3.25;;;27.60;39.80;;;;;;5053901;28;20013;-57
2023/10/07 08:50:58;;;;;;;13.57;3.08;;;27.50;39.60;;;;;;5054663;28;20009;-57
2023/10/07 08:53:26;;;;;;;10.98;2.58;;;27.50;39.10;;;;;;5054773;28;20013;-59
2023/10/07 08:55:56;;;;;;;10.43;3.33;;;27.50;39.40;;;;;;5054024;28;20040;-60
2023/10/07 08:58:27;;;;;;;14.90;2.90;;;27.50;39.20;;;;;;5055453;28;20464;-58
2023/10/07 09:00:56;;;;;;;11.48;2.78;;;27.40;39.50;;;;;;5054768;28;20017;-60
2023/10/07 09:03:28;;;;;;;13.60;2.75;;;27.30;40.40;;;;;;5053251;28;20044;-58
2023/10/07 09:06:02;;;;;;;8.52;3.03;;;27.20;39.70;;;;;;5052324;28;20017;-57
2023/10/07 09:08:33;;;;;;;16.27;3.13;;;27.10;40.80;;;;;;5054287;28;20033;-60
2023/10/07 09:11:03;;;;;;;10.93;2.90;;;27.00;39.80;;;;;;5053448;28;20025;-58
2023/10/07 09:13:31;;;;;;;13.80;3.25;;;26.90;41.30;;;;;;5052391;28;20024;-57
2023/10/07 09:16:03;;;;;;;12.35;3.25;;;26.80;41.00;;;;;;5053504;28;21270;-58
2023/10/07 09:18:42;;;;;;;14.77;3.70;;;26.80;41.20;;;;;;5052464;28;20502;-57
2023/10/07 09:21:19;;;;;;;9.02;2.90;;;26.70;41.20;;;;;;5054438;28;20530;-61
2023/10/07 09:23:59;;;;;;;14.48;3.22;;;26.50;40.70;;;;;;5056165;28;20065;-59
2023/10/07 09:26:37;;;;;;;14.95;3.08;;;26.40;40.50;;;;;;5053965;28;20377;-58
2023/10/07 09:29:21;;;;;;;9.52;3.08;;;26.50;40.60;;;;;;5055112;28;20017;-59
2023/10/07 09:32:16;;;;;;;14.63;3.03;;;26.50;40.40;;;;;;5051636;28;20473;-57
2023/10/07 09:34:44;;;;;;;9.45;3.17;;;26.30;41.80;;;;;;5054432;28;20037;-57
2023/10/07 09:37:21;;;;;;;9.43;2.78;;;26.30;41.50;;;;;;5052787;28;20679;-58
2023/10/07 09:39:55;;;;;;;8.32;2.97;;;26.20;41.40;;;;;;5052583;28;21477;-57
2023/10/07 09:42:36;;;;;;;6.38;2.45;;;26.20;42.90;;;;;;5053943;28;20035;-59
2023/10/07 09:47:39;;;;;;;10.57;2.70;;;26.30;42.20;;;;;;5053210;28;20031;-58
2023/10/07 09:50:25;;;;;;;13.02;2.50;;;26.20;42.90;;;;;;5053910;28;20066;-57
2023/10/07 09:53:22;;;;;;;12.02;3.08;;;26.20;42.10;;;;;;5051463;28;20469;-59
2023/10/07 09:56:11;;;;;;;7.78;3.25;;;26.20;41.80;;;;;;5053581;28;20496;-57
2023/10/07 09:59:15;;;;;;;12.07;3.35;;;26.10;42.40;;;;;;5052328;28;20047;-57
2023/10/07 10:02:23;;;;;;;10.43;2.72;;;25.90;41.90;;;;;;5054050;28;20385;-56
2023/10/07 10:05:11;;;;;;;10.45;2.80;;;25.80;43.10;;;;;;5054576;28;20440;-55
2023/10/07 10:08:19;;;;;;;17.75;3.10;;;25.90;43.00;;;;;;5051368;28;20363;-61
2023/10/07 10:10:57;;;;;;;15.05;3.47;;;25.90;43.30;;;;;;5051806;28;20075;-56
2023/10/07 10:13:51;;;;;;;15.70;3.85;;;25.80;43.80;;;;;;5051214;28;20029;-56
2023/10/07 10:16:29;;;;;;;20.17;3.47;;;25.70;43.70;;;;;;5051876;28;20498;-57
2023/10/07 10:21:44;;;;;;;11.27;3.38;;;25.60;44.20;;;;;;5051430;28;20032;-58
2023/10/07 10:24:18;;;;;;;17.05;3.10;;;25.50;43.80;;;;;;5052595;28;20147;-58
2023/10/07 10:26:45;;;;;;;14.80;3.33;;;25.50;43.80;;;;;;5053476;28;20055;-58
2023/10/07 10:29:17;;;;;;;8.35;3.05;;;25.50;43.00;;;;;;5054125;28;20012;-58
2023/10/07 10:31:58;;;;;;;11.73;3.40;;;25.40;42.80;;;;;;5055663;28;20056;-58
2023/10/07 10:34:26;;;;;;;9.55;3.03;;;25.40;44.20;;;;;;5078938;28;20473;-57
2023/10/07 10:36:55;;;;;;;21.85;4.65;;;25.30;44.90;;;;;;5050785;28;20036;-58
2023/10/07 10:39:33;;;;;;;22.30;4.45;;;25.30;43.90;;;;;;5050578;28;20032;-60
2023/10/07 10:42:09;;;;;;;18.13;3.90;;;25.30;44.40;;;;;;5050216;28;20504;-57
2023/10/07 10:44:37;;;;;;;20.35;3.95;;;25.20;44.50;;;;;;5053298;28;20025;-60
2023/10/07 10:47:04;;;;;;;11.70;3.83;;;25.10;43.90;;;;;;5051632;28;20412;-60
2023/10/07 10:49:35;;;;;;;11.63;3.47;;;25.30;43.20;;;;;;5050786;28;20021;-58
2023/10/07 10:52:02;;;;;;;9.82;3.55;;;25.30;43.10;;;;;;5051495;28;20378;-56
2023/10/07 10:54:29;;;;;;;9.00;3.40;;;25.30;43.80;;;;;;5052752;28;20077;-63
2023/10/07 10:57:00;;;;;;;13.60;3.70;;;25.40;43.30;;;;;;5053534;28;20115;-60
2023/10/07 10:59:42;;;;;;;24.13;4.10;;;25.30;44.30;;;;;;5053378;28;20017;-57
2023/10/07 11:02:17;;;;;;;22.55;4.97;;;25.30;44.20;;;;;;5052491;28;20036;-58
2023/10/07 11:05:02;;;;;;;14.98;4.82;;;25.30;44.30;;;;;;5049395;28;20493;-60
2023/10/07 11:07:30;;;;;;;23.65;5.15;;;25.30;43.80;;;;;;5051256;28;20051;-55
2023/10/07 11:09:57;;;;;;;21.85;5.70;;;25.20;44.20;;;;;;5050416;28;20014;-59
2023/10/07 11:12:27;;;;;;;24.70;5.80;;;25.20;43.90;;;;;;5051486;28;20088;-60
2023/10/07 11:15:06;;;;;;;24.95;6.32;;;25.10;44.10;;;;;;5049958;28;20021;-59
2023/10/07 11:17:32;;;;;;;23.23;6.32;;;25.10;43.90;;;;;;5051228;28;20029;-61
2023/10/07 11:20:03;;;;;;;26.65;6.75;;;25.10;44.20;;;;;;5050635;28;20114;-55
2023/10/07 11:22:38;;;;;;;19.90;6.70;;;25.00;44.70;;;;;;5050258;28;20510;-58
2023/10/07 11:25:06;;;;;;;18.77;6.07;;;25.00;44.70;;;;;;5051889;28;20466;-59
2023/10/07 11:27:37;;;;;;;18.42;5.70;;;25.00;44.60;;;;;;5052025;28;20027;-55
2023/10/07 11:30:06;;;;;;;21.33;6.35;;;25.00;45.60;;;;;;5052198;28;20017;-60
2023/10/07 11:32:39;;;;;;;24.15;6.30;;;24.90;46.00;;;;;;5056404;28;20122;-58
2023/10/07 11:35:28;;;;;;;20.23;5.70;;;24.80;46.80;;;;;;5055581;28;20126;-59
2023/10/07 11:37:58;;;;;;;13.63;5.43;;;24.70;45.30;;;;;;5054711;28;20017;-58
2023/10/07 11:40:30;;;;;;;19.67;6.72;;;24.60;46.30;;;;;;5056955;28;20021;-62
2023/10/07 11:43:04;;;;;;;27.92;7.07;;;24.60;46.30;;;;;;5054315;28;20025;-60
2023/10/07 11:45:32;;;;;;;29.70;6.65;;;24.60;45.60;;;;;;5056058;28;20028;-61
2023/10/07 11:47:58;;;;;;;23.25;6.50;;;24.70;45.40;;;;;;5056100;28;20017;-55
2023/10/07 11:50:29;;;;;;;24.02;6.60;;;24.70;45.60;;;;;;5056428;28;20095;-60
2023/10/07 11:52:56;;;;;;;20.98;6.85;;;24.70;45.80;;;;;;5055183;28;20008;-58
2023/10/07 11:55:23;;;;;;;26.55;6.85;;;24.50;45.20;;;;;;5055104;28;20134;-59
2023/10/07 11:57:49;;;;;;;28.35;7.35;;;24.40;45.80;;;;;;5055687;28;20118;-58
2023/10/07 12:03:06;;;;;;;37.88;7.78;;;24.40;46.50;;;;;;5054066;28;20044;-59
2023/10/07 12:05:42;;;;;;;36.83;7.03;;;24.40;46.40;;;;;;5053169;28;20089;-61
2023/10/07 12:08:11;;;;;;;30.90;7.43;;;24.30;46.50;;;;;;5053702;28;20024;-57
2023/10/07 12:10:38;;;;;;;18.75;6.40;;;24.30;46.70;;;;;;5056416;28;20766;-60
2023/10/07 12:13:11;;;;;;;24.92;6.85;;;24.30;47.10;;;;;;5053685;28;20024;-59
2023/10/07 12:15:42;;;;;;;31.10;7.30;;;24.30;47.20;;;;;;5054582;28;20030;-58
2023/10/07 12:18:16;;;;;;;22.88;6.65;;;24.30;47.50;;;;;;5053683;28;20025;-59
2023/10/07 12:20:43;;;;;;;28.45;7.15;;;24.30;47.50;;;;;;5053886;28;20017;-60
2023/10/07 12:23:09;;;;;;;26.85;7.45;;;24.30;46.70;;;;;;5054789;28;20032;-65
2023/10/07 12:25:37;;;;;;;21.33;7.00;;;24.30;46.70;;;;;;5053555;28;20009;-59
2023/10/07 12:28:08;;;;;;;25.75;7.05;;;24.30;47.30;;;;;;5053126;28;20101;-62
2023/10/07 12:30:35;;;;;;;34.70;7.50;;;24.30;47.80;;;;;;5055073;28;20533;-59
2023/10/07 12:33:02;;;;;;;45.25;7.65;;;24.30;47.70;;;;;;5052724;28;20095;-59
2023/10/07 12:35:34;;;;;;;49.08;8.48;;;24.30;47.60;;;;;;5055900;28;20028;-57
2023/10/07 12:38:01;;;;;;;27.17;6.47;;;24.30;47.30;;;;;;5054273;28;20496;-59
2023/10/07 12:40:30;;;;;;;38.83;8.05;;;24.10;47.70;;;;;;5053167;28;20024;-58
2023/10/07 12:42:57;;;;;;;33.67;7.85;;;24.00;49.10;;;;;;5053997;28;20054;-58
2023/10/07 12:45:24;;;;;;;28.45;7.50;;;24.00;49.60;;;;;;5053074;28;20015;-61
2023/10/07 12:47:54;;;;;;;26.48;7.35;;;23.90;49.20;;;;;;5054018;28;20104;-58
2023/10/07 12:50:26;;;;;;;35.92;7.43;;;23.90;48.60;;;;;;5054655;28;20059;-58
2023/10/07 12:53:04;;;;;;;26.45;8.10;;;23.90;48.90;;;;;;5053765;28;20025;-58
2023/10/07 12:55:32;;;;;;;31.73;8.20;;;23.90;48.30;;;;;;5057056;28;20025;-56
2023/10/07 12:58:05;;;;;;;30.85;8.15;;;23.90;48.50;;;;;;5053549;28;20067;-58
2023/10/07 13:00:33;;;;;;;23.83;7.25;;;23.90;49.10;;;;;;5052785;28;20446;-57
2023/10/07 13:03:06;;;;;;;24.38;7.75;;;23.90;49.10;;;;;;5054205;28;20074;-56
2023/10/07 13:05:37;;;;;;;25.65;7.28;;;24.00;48.90;;;;;;5053882;28;20017;-56
2023/10/07 13:08:15;;;;;;;30.85;7.40;;;23.90;48.70;;;;;;5052383;28;20035;-58
2023/10/07 13:10:45;;;;;;;41.33;7.43;;;23.80;49.00;;;;;;5052915;28;20009;-55
2023/10/07 13:13:19;;;;;;;20.83;6.90;;;23.80;49.40;;;;;;5052857;28;20077;-60
2023/10/07 13:15:46;;;;;;;26.85;7.63;;;23.70;50.00;;;;;;5055369;28;20099;-58
2023/10/07 13:18:13;;;;;;;27.25;7.75;;;23.70;50.90;;;;;;5054808;28;20016;-59
2023/10/07 13:20:40;;;;;;;29.20;7.93;;;23.70;50.20;;;;;;5054236;28;20017;-58
2023/10/07 13:23:10;;;;;;;33.97;8.77;;;23.70;49.80;;;;;;5051367;28;20029;-57
2023/10/07 13:25:37;;;;;;;28.23;7.40;;;23.60;50.30;;;;;;5054224;28;20017;-59
2023/10/07 13:28:05;;;;;;;37.85;8.40;;;23.60;50.80;;;;;;5053199;28;20299;-56
2023/10/07 13:30:33;;;;;;;37.05;8.95;;;23.50;49.80;;;;;;5048694;28;20020;-59
2023/10/07 13:33:00;;;;;;;39.55;8.80;;;23.40;49.40;;;;;;5051954;28;20025;-57
2023/10/07 13:35:27;;;;;;;35.97;9.65;;;23.30;49.10;;;;;;5053066;28;20484;-57
2023/10/07 13:37:56;;;;;;;64.35;11.23;;;23.30;49.40;;;;;;5053642;28;20017;-57
2023/10/07 13:40:23;;;;;;;56.53;9.93;;;23.40;49.20;;;;;;5054259;28;20016;-64
2023/10/07 13:42:54;;;;;;;52.60;10.30;;;23.40;49.30;;;;;;5053452;28;20112;-61
2023/10/07 13:45:28;;;;;;;112.53;13.60;;;23.30;49.50;;;;;;5052366;28;20028;-58
2023/10/07 13:47:56;;;;;;;61.70;12.00;;;23.30;49.50;;;;;;5052699;28;20380;-58
2023/10/07 13:50:27;;;;;;;54.20;12.07;;;23.40;49.80;;;;;;5051756;28;20024;-59
2023/10/07 13:53:12;;;;;;;38.72;11.52;;;23.40;49.90;;;;;;5055113;28;20025;-59
2023/10/07 13:58:14;;;;;;;42.60;11.80;;;23.30;50.20;;;;;;5052263;28;20025;-56